DEABC LOWI-LOWI

Flight info

Callsign DEABC
Flight time N/A
Altitude 5500
Route VFR
Aircraft C172/L-VGD/A

Departure

Time 2026-04-30 11:31
Airport Innsbruck Airport (LOWI)

Arrival

Time N/A
Airport Innsbruck Airport (LOWI)
Time Latitude Longitude Altitude Speed Heading
2026-04-30 11:30 47.38264 11.79735 5781 ft 93 kts 56°
2026-04-30 11:31 47.38620 11.80544 5778 ft 93 kts 56°
2026-04-30 11:31 47.38971 11.81340 5780 ft 92 kts 56°
2026-04-30 11:31 47.39327 11.82133 5778 ft 92 kts 50°
2026-04-30 11:31 47.39768 11.82816 5777 ft 92 kts 44°
2026-04-30 11:32 47.40229 11.83474 5775 ft 91 kts 44°
2026-04-30 11:32 47.40686 11.84122 5774 ft 91 kts 44°
2026-04-30 11:32 47.41107 11.84820 5771 ft 91 kts 52°
2026-04-30 11:33 47.41842 11.86362 5774 ft 91 kts 54°
2026-04-30 11:33 47.42209 11.87130 5774 ft 91 kts 53°
2026-04-30 11:33 47.42578 11.87901 5771 ft 91 kts 53°
2026-04-30 11:33 47.42953 11.88685 5701 ft 96 kts 54°
2026-04-30 11:34 47.43339 11.89488 5574 ft 96 kts 54°
2026-04-30 11:34 47.43724 11.90286 5450 ft 95 kts 54°
2026-04-30 11:34 47.44111 11.91094 5326 ft 95 kts 54°
2026-04-30 11:34 47.44492 11.91888 5204 ft 95 kts 54°
2026-04-30 11:35 47.44873 11.92682 5080 ft 94 kts 54°
2026-04-30 11:35 47.45251 11.93469 4956 ft 93 kts 54°
2026-04-30 11:35 47.45629 11.94248 4831 ft 93 kts 54°
2026-04-30 11:35 47.46006 11.95022 4703 ft 93 kts 54°
2026-04-30 11:36 47.46385 11.95802 4578 ft 93 kts 54°
2026-04-30 11:36 47.46748 11.96555 4460 ft 92 kts 54°
2026-04-30 11:36 47.47107 11.97293 4343 ft 92 kts 54°
2026-04-30 11:36 47.47481 11.98059 4214 ft 92 kts 54°
2026-04-30 11:37 47.47863 11.98825 4080 ft 91 kts 53°
2026-04-30 11:37 47.48226 11.99561 3939 ft 91 kts 54°
2026-04-30 11:37 47.48600 12.00330 3796 ft 91 kts 53°
2026-04-30 11:37 47.48968 12.01095 3671 ft 92 kts 54°
2026-04-30 11:38 47.49337 12.01865 3551 ft 92 kts 53°
2026-04-30 11:38 47.49708 12.02639 3423 ft 92 kts 54°
2026-04-30 11:38 47.50072 12.03405 3301 ft 92 kts 54°
2026-04-30 11:38 47.50458 12.04168 3181 ft 91 kts 47°
2026-04-30 11:39 47.50903 12.04828 3072 ft 90 kts 45°
2026-04-30 11:39 47.51361 12.05471 2961 ft 90 kts 44°
2026-04-30 11:39 47.51819 12.06097 2871 ft 90 kts 44°
2026-04-30 11:39 47.52284 12.06725 2793 ft 88 kts 44°
2026-04-30 11:40 47.52720 12.07314 2781 ft 82 kts 44°
2026-04-30 11:40 47.53124 12.07863 2805 ft 75 kts 44°
2026-04-30 11:40 47.53503 12.08379 2815 ft 73 kts 43°
2026-04-30 11:40 47.53883 12.08882 2779 ft 75 kts 42°
2026-04-30 11:41 47.54271 12.09400 2703 ft 73 kts 46°
2026-04-30 11:41 47.54642 12.09930 2590 ft 74 kts 43°
2026-04-30 11:41 47.55016 12.10415 2484 ft 69 kts 42°
2026-04-30 11:41 47.55349 12.10854 2340 ft 57 kts 44°
2026-04-30 11:42 47.55619 12.11255 2141 ft 56 kts 47°
2026-04-30 11:42 47.55900 12.11645 1922 ft 56 kts 46°
2026-04-30 11:42 47.56146 12.12074 1715 ft 55 kts 51°
2026-04-30 11:42 47.56349 12.12490 1609 ft 40 kts 54°
2026-04-30 11:43 47.56475 12.12684 1608 ft 8 kts 356°
2026-04-30 11:43 47.56483 12.12680 1608 ft 1 kts 344°
2026-04-30 11:43 47.56515 12.12663 1607 ft 7 kts 340°
2026-04-30 11:43 47.56519 12.12625 1607 ft 6 kts 99°
2026-04-30 11:44 47.56519 12.12628 1607 ft 0 kts 92°
2026-04-30 11:46 47.56519 12.12629 1607 ft 0 kts 91°
2026-04-30 11:46 47.56529 12.12656 1607 ft 3 kts 47°
2026-04-30 11:46 47.56525 12.12686 1608 ft 3 kts 126°
2026-04-30 11:46 47.56499 12.12734 1608 ft 8 kts 161°
2026-04-30 11:47 47.56421 12.12636 1608 ft 25 kts 218°
2026-04-30 11:47 47.56299 12.12428 1609 ft 19 kts 265°
2026-04-30 11:47 47.56258 12.12324 1609 ft 9 kts 56°
2026-04-30 11:47 47.56332 12.12500 1609 ft 36 kts 51°
2026-04-30 11:48 47.56525 12.12887 1696 ft 52 kts 53°
2026-04-30 11:48 47.56764 12.13338 1846 ft 59 kts 50°
2026-04-30 11:48 47.57022 12.13775 2021 ft 60 kts 47°
2026-04-30 11:48 47.57298 12.14231 2217 ft 60 kts 50°
2026-04-30 11:49 47.57580 12.14702 2409 ft 62 kts 46°
2026-04-30 11:49 47.57877 12.15134 2616 ft 61 kts 47°
2026-04-30 11:49 47.58170 12.15598 2798 ft 62 kts 43°
2026-04-30 11:49 47.58548 12.16094 2828 ft 80 kts 43°
2026-04-30 11:50 47.58977 12.16683 2813 ft 85 kts 45°
2026-04-30 11:50 47.59423 12.17281 2815 ft 87 kts 44°
2026-04-30 11:50 47.59877 12.17881 2816 ft 88 kts 44°
2026-04-30 11:50 47.60417 12.18263 2818 ft 92 kts 18°
2026-04-30 11:51 47.61056 12.18412 2821 ft 93 kts 14°
2026-04-30 11:51 47.61709 12.18532 2833 ft 95 kts 10°
2026-04-30 11:51 47.62392 12.18387 2821 ft 99 kts 355°
2026-04-30 11:51 47.63061 12.18144 2821 ft 98 kts 354°
2026-04-30 11:52 47.63731 12.17957 2813 ft 97 kts 359°
2026-04-30 11:52 47.64392 12.17788 2818 ft 96 kts
2026-04-30 11:52 47.65059 12.17607 2816 ft 97 kts
2026-04-30 11:52 47.65727 12.17426 2812 ft 97 kts 357°
2026-04-30 11:53 47.66380 12.17242 2811 ft 96 kts 359°
2026-04-30 11:53 47.67039 12.17063 2812 ft 96 kts 359°
2026-04-30 11:53 47.67694 12.16882 2816 ft 96 kts 360°
2026-04-30 11:53 47.68364 12.16698 2821 ft 98 kts 358°
2026-04-30 11:54 47.69041 12.16502 2809 ft 99 kts 355°
2026-04-30 11:54 47.69705 12.16248 2797 ft 99 kts 354°
2026-04-30 11:54 47.70377 12.15958 2813 ft 99 kts 354°
2026-04-30 11:54 47.71043 12.15690 2803 ft 98 kts 353°
2026-04-30 11:55 47.71699 12.15434 2822 ft 98 kts 353°
2026-04-30 11:55 47.72359 12.15307 2825 ft 94 kts 10°
2026-04-30 11:55 47.73020 12.15406 2825 ft 94 kts 16°
2026-04-30 11:55 47.73536 12.15914 2816 ft 88 kts 50°
2026-04-30 11:56 47.73915 12.16613 2786 ft 85 kts 53°
2026-04-30 11:56 47.74266 12.17312 2785 ft 83 kts 54°
2026-04-30 11:56 47.74616 12.17988 2811 ft 82 kts 54°
2026-04-30 11:56 47.74969 12.18662 2796 ft 82 kts 54°
2026-04-30 11:57 47.75323 12.19334 2821 ft 83 kts 56°
2026-04-30 11:57 47.75686 12.20016 2812 ft 84 kts 54°
2026-04-30 11:57 47.76057 12.20681 2801 ft 83 kts 55°
2026-04-30 11:57 47.76430 12.21341 2795 ft 81 kts 54°
2026-04-30 11:58 47.76793 12.21980 2805 ft 80 kts 54°
2026-04-30 11:58 47.77151 12.22619 2811 ft 81 kts 54°
2026-04-30 11:58 47.77509 12.23265 2799 ft 80 kts 52°
2026-04-30 11:58 47.77857 12.23925 2808 ft 81 kts 54°
2026-04-30 11:59 47.78206 12.24582 2812 ft 81 kts 54°
2026-04-30 11:59 47.78563 12.25248 2819 ft 83 kts 53°
2026-04-30 11:59 47.78923 12.25927 2812 ft 84 kts 55°
2026-04-30 11:59 47.79293 12.26609 2797 ft 82 kts 54°
2026-04-30 12:00 47.79655 12.27250 2802 ft 80 kts 54°
2026-04-30 12:00 47.79871 12.27990 2809 ft 79 kts 79°
2026-04-30 12:00 47.79921 12.28811 2802 ft 80 kts 84°
2026-04-30 12:00 47.79944 12.29651 2809 ft 81 kts 85°
2026-04-30 12:01 47.79962 12.30497 2801 ft 82 kts 84°
2026-04-30 12:01 47.79984 12.31355 2808 ft 82 kts 83°
2026-04-30 12:01 47.80001 12.32214 2802 ft 83 kts 84°
2026-04-30 12:01 47.80017 12.33082 2789 ft 83 kts 84°
2026-04-30 12:02 47.80038 12.33934 2779 ft 82 kts 83°
2026-04-30 12:02 47.80098 12.34766 2801 ft 81 kts 78°
2026-04-30 12:02 47.80172 12.35618 2807 ft 83 kts 78°
2026-04-30 12:02 47.80248 12.36488 2823 ft 85 kts 79°
2026-04-30 12:03 47.80330 12.37367 2830 ft 87 kts 78°
2026-04-30 12:03 47.80498 12.39185 2813 ft 89 kts 79°
2026-04-30 12:03 47.80580 12.40083 2805 ft 87 kts 79°
2026-04-30 12:04 47.80664 12.40976 2802 ft 85 kts 79°
2026-04-30 12:04 47.80750 12.41840 2810 ft 84 kts 78°
2026-04-30 12:04 47.80834 12.42709 2815 ft 84 kts 78°
2026-04-30 12:04 47.80914 12.43569 2807 ft 84 kts 79°
2026-04-30 12:05 47.80998 12.44429 2803 ft 83 kts 79°
2026-04-30 12:05 47.81087 12.45278 2806 ft 83 kts 79°
2026-04-30 12:05 47.81169 12.46124 2811 ft 82 kts 79°
2026-04-30 12:05 47.81255 12.46983 2826 ft 84 kts 79°
2026-04-30 12:06 47.81340 12.47850 2817 ft 85 kts 78°
2026-04-30 12:06 47.81425 12.48721 2812 ft 85 kts 78°
2026-04-30 12:06 47.81506 12.49596 2815 ft 84 kts 79°
2026-04-30 12:06 47.81583 12.50453 2810 ft 84 kts 79°
2026-04-30 12:07 47.81657 12.51305 2811 ft 83 kts 78°
2026-04-30 12:07 47.81731 12.52165 2808 ft 82 kts 78°
2026-04-30 12:07 47.81831 12.52997 2819 ft 82 kts 74°
2026-04-30 12:07 47.81958 12.53839 2811 ft 84 kts 73°
2026-04-30 12:08 47.82088 12.54708 2813 ft 85 kts 73°
2026-04-30 12:08 47.82214 12.55560 2803 ft 84 kts 74°
2026-04-30 12:08 47.82340 12.56398 2799 ft 82 kts 74°
2026-04-30 12:08 47.82463 12.57223 2799 ft 82 kts 73°
2026-04-30 12:09 47.82584 12.58045 2799 ft 80 kts 76°
2026-04-30 12:09 47.82713 12.58863 2824 ft 79 kts 75°
2026-04-30 12:09 47.82839 12.59662 2812 ft 80 kts 75°
2026-04-30 12:09 47.82972 12.60481 2804 ft 81 kts 75°
2026-04-30 12:10 47.83103 12.61285 2811 ft 79 kts 74°
2026-04-30 12:10 47.83224 12.62081 2827 ft 77 kts 74°
2026-04-30 12:10 47.83347 12.62878 2860 ft 82 kts 76°
2026-04-30 12:10 47.83484 12.63717 2838 ft 84 kts 75°
2026-04-30 12:11 47.83627 12.64569 2824 ft 85 kts 73°
2026-04-30 12:11 47.83769 12.65392 2790 ft 80 kts 74°
2026-04-30 12:11 47.83907 12.66186 2846 ft 78 kts 74°
2026-04-30 12:11 47.84044 12.66993 2822 ft 81 kts 76°
2026-04-30 12:12 47.84190 12.67793 2835 ft 80 kts 73°
2026-04-30 12:12 47.84333 12.68607 2830 ft 81 kts 73°
2026-04-30 12:12 47.84476 12.69430 2837 ft 82 kts 74°
2026-04-30 12:12 47.84620 12.70262 2834 ft 83 kts 75°
2026-04-30 12:13 47.84763 12.71118 2841 ft 85 kts 76°
2026-04-30 12:13 47.84869 12.71989 2829 ft 87 kts 78°
2026-04-30 12:13 47.84957 12.72880 2817 ft 87 kts 78°
2026-04-30 12:13 47.85032 12.73778 2828 ft 86 kts 77°
2026-04-30 12:14 47.85097 12.74676 2871 ft 89 kts 79°
2026-04-30 12:14 47.85174 12.75608 2869 ft 92 kts 82°
2026-04-30 12:14 47.85247 12.76563 2862 ft 93 kts 80°
2026-04-30 12:14 47.85327 12.77522 2839 ft 91 kts 80°
2026-04-30 12:15 47.85422 12.78439 2835 ft 88 kts 79°
2026-04-30 12:15 47.85518 12.79343 2836 ft 87 kts 75°
2026-04-30 12:15 47.85568 12.80247 2841 ft 89 kts 84°
2026-04-30 12:15 47.85578 12.81171 2838 ft 88 kts 85°
2026-04-30 12:16 47.85561 12.82083 2832 ft 90 kts 99°
2026-04-30 12:16 47.85281 12.82928 2831 ft 91 kts 111°
2026-04-30 12:16 47.84949 12.83739 2833 ft 91 kts 112°
2026-04-30 12:16 47.84610 12.84539 2844 ft 91 kts 112°
2026-04-30 12:17 47.83897 12.86163 2851 ft 94 kts 112°
2026-04-30 12:17 47.83530 12.86984 2848 ft 94 kts 115°
2026-04-30 12:17 47.83196 12.87857 2763 ft 97 kts 104°
2026-04-30 12:18 47.83039 12.88819 2744 ft 93 kts 95°
2026-04-30 12:18 47.82917 12.89759 2746 ft 92 kts 95°
2026-04-30 12:18 47.82809 12.90678 2744 ft 89 kts 95°
2026-04-30 12:18 47.82706 12.91594 2752 ft 89 kts 92°
2026-04-30 12:19 47.82594 12.92498 2760 ft 89 kts 92°
2026-04-30 12:19 47.82483 12.93411 2764 ft 89 kts 95°
2026-04-30 12:19 47.82371 12.94330 2759 ft 90 kts 93°
2026-04-30 12:19 47.82114 12.95185 2751 ft 97 kts 126°
2026-04-30 12:20 47.81515 12.95740 2762 ft 102 kts 143°
2026-04-30 12:20 47.80862 12.96211 2756 ft 104 kts 146°
2026-04-30 12:20 47.80189 12.96659 2761 ft 105 kts 146°
2026-04-30 12:20 47.79525 12.97117 2765 ft 104 kts 144°
2026-04-30 12:21 47.78880 12.97576 2760 ft 102 kts 144°
2026-04-30 12:21 47.78233 12.98037 2760 ft 102 kts 144°
2026-04-30 12:21 47.77597 12.98491 2762 ft 102 kts 143°
2026-04-30 12:21 47.76950 12.98956 2765 ft 103 kts 144°
2026-04-30 12:22 47.76358 12.99380 2809 ft 79 kts 136°
2026-04-30 12:22 47.76152 13.00037 2691 ft 69 kts 73°
2026-04-30 12:22 47.76448 13.00566 2574 ft 67 kts 46°
2026-04-30 12:22 47.76780 13.01007 2446 ft 59 kts 37°
2026-04-30 12:23 47.77139 13.01249 2216 ft 62 kts 14°
2026-04-30 12:23 47.77583 13.01304 1954 ft 71 kts
2026-04-30 12:23 47.78080 13.01167 1685 ft 72 kts 347°
2026-04-30 12:23 47.78522 13.00909 1490 ft 66 kts 344°
2026-04-30 12:24 47.78882 13.00679 1415 ft 42 kts 347°
2026-04-30 12:24 47.79085 13.00544 1416 ft 22 kts 302°
2026-04-30 12:24 47.79120 13.00375 1416 ft 16 kts 275°
2026-04-30 12:24 47.79176 13.00248 1416 ft 15 kts 336°
2026-04-30 12:25 47.79267 13.00174 1416 ft 15 kts 332°
2026-04-30 12:25 47.79351 13.00088 1417 ft 15 kts 287°
2026-04-30 12:25 47.79318 12.99939 1417 ft 14 kts 245°
2026-04-30 12:25 47.79326 12.99857 1419 ft 6 kts 301°
2026-04-30 12:26 47.79342 12.99800 1421 ft 5 kts 290°
2026-04-30 12:26 47.79346 12.99786 1422 ft 0 kts 288°